createdAt,value
2022-08-14T00:01:55.643Z,18.90
2022-08-14T00:04:32.081Z,19.00
2022-08-14T00:07:02.488Z,19.00
2022-08-14T00:09:28.615Z,19.00
2022-08-14T00:12:05.812Z,19.10
2022-08-14T00:14:57.516Z,18.90
2022-08-14T00:17:26.023Z,19.00
2022-08-14T00:19:54.495Z,19.00
2022-08-14T00:22:22.102Z,19.00
2022-08-14T00:25:15.765Z,19.00
2022-08-14T00:27:42.406Z,18.90
2022-08-14T00:30:14.246Z,19.00
2022-08-14T00:32:51.703Z,18.70
2022-08-14T00:35:35.740Z,18.80
2022-08-14T00:38:09.330Z,18.80
2022-08-14T00:40:36.883Z,18.70
2022-08-14T00:43:03.341Z,18.80
2022-08-14T00:45:31.150Z,18.70
2022-08-14T00:47:59.986Z,18.70
2022-08-14T00:50:27.061Z,18.70
2022-08-14T00:52:54.270Z,18.60
2022-08-14T00:55:21.036Z,18.70
2022-08-14T00:57:48.196Z,18.60
2022-08-14T01:00:34.212Z,18.60
2022-08-14T01:03:03.794Z,18.60
2022-08-14T01:05:50.809Z,18.40
2022-08-14T01:08:51.213Z,18.40
2022-08-14T01:11:14.303Z,18.50
2022-08-14T01:13:55.807Z,18.40
2022-08-14T01:16:30.619Z,18.40
2022-08-14T01:19:02.279Z,18.30
2022-08-14T01:21:31.372Z,18.30
2022-08-14T01:24:02.441Z,18.30
2022-08-14T01:26:35.245Z,18.30
2022-08-14T01:29:06.198Z,18.30
2022-08-14T01:31:36.952Z,18.30
2022-08-14T01:35:16.474Z,18.30
2022-08-14T01:36:52.964Z,18.20
2022-08-14T01:39:20.263Z,18.10
2022-08-14T01:41:49.620Z,18.10
2022-08-14T01:44:31.391Z,18.10
2022-08-14T01:47:06.002Z,18.00
2022-08-14T01:49:35.209Z,17.90
2022-08-14T01:52:02.488Z,17.90
2022-08-14T01:54:40.312Z,17.90
2022-08-14T01:57:06.429Z,17.80
2022-08-14T01:59:38.179Z,17.80
2022-08-14T02:02:07.209Z,17.90
2022-08-14T02:04:55.773Z,17.70
2022-08-14T02:07:27.289Z,17.70
2022-08-14T02:10:13.167Z,17.70
2022-08-14T02:12:45.062Z,17.70
2022-08-14T02:15:26.182Z,17.50
2022-08-14T02:18:00.252Z,17.40
2022-08-14T02:20:28.718Z,17.30
2022-08-14T02:22:56.066Z,17.20
2022-08-14T02:25:22.679Z,17.20
2022-08-14T02:28:23.805Z,17.10
2022-08-14T02:30:38.264Z,17.10
2022-08-14T02:33:04.901Z,17.00
2022-08-14T02:35:32.832Z,17.00
2022-08-14T02:38:04.291Z,16.90
2022-08-14T02:40:32.181Z,16.80
2022-08-14T02:43:03.753Z,16.90
2022-08-14T02:45:33.271Z,16.80
2022-08-14T02:48:05.866Z,16.80
2022-08-14T02:50:36.753Z,16.80
2022-08-14T02:53:10.873Z,16.80
2022-08-14T02:55:38.564Z,16.70
2022-08-14T02:58:06.275Z,16.70
2022-08-14T03:00:33.284Z,16.70
2022-08-14T03:03:07.894Z,16.60
2022-08-14T03:05:36.042Z,16.60
2022-08-14T03:08:08.836Z,16.50
2022-08-14T03:10:37.062Z,16.50
2022-08-14T03:13:19.036Z,16.50
2022-08-14T03:15:48.532Z,16.60
2022-08-14T03:18:21.226Z,16.60
2022-08-14T03:21:04.615Z,16.70
2022-08-14T03:23:31.715Z,16.50
2022-08-14T03:25:57.803Z,16.50
2022-08-14T03:28:29.485Z,16.40
2022-08-14T03:31:03.218Z,16.40
2022-08-14T03:33:37.694Z,16.40
2022-08-14T03:37:37.678Z,16.40
2022-08-14T03:39:14.329Z,16.20
2022-08-14T03:41:43.415Z,16.20
2022-08-14T03:45:25.561Z,16.30
2022-08-14T03:46:56.370Z,16.20
2022-08-14T03:49:29.492Z,16.20
2022-08-14T03:51:57.712Z,16.20
2022-08-14T03:54:25.596Z,16.20
2022-08-14T03:56:51.668Z,16.10
2022-08-14T03:59:19.075Z,16.10
2022-08-14T04:01:58.167Z,16.10
2022-08-14T04:04:35.837Z,16.00
2022-08-14T04:07:04.050Z,16.00
2022-08-14T04:09:30.734Z,16.00
2022-08-14T04:11:58.210Z,16.00
2022-08-14T04:14:26.367Z,16.00
2022-08-14T04:16:53.990Z,15.90
2022-08-14T04:19:20.083Z,15.90
2022-08-14T04:22:02.339Z,15.90
2022-08-14T04:24:31.918Z,15.90
2022-08-14T04:27:07.304Z,15.90
2022-08-14T04:29:37.563Z,15.90
2022-08-14T04:32:58.174Z,15.90
2022-08-14T04:34:54.258Z,15.90
2022-08-14T04:37:24.747Z,15.90
2022-08-14T04:39:57.316Z,15.90
2022-08-14T04:42:24.709Z,15.90
2022-08-14T04:45:00.593Z,15.90
2022-08-14T04:47:27.207Z,16.00
2022-08-14T04:49:57.955Z,15.90
2022-08-14T04:52:25.998Z,15.90
2022-08-14T04:54:52.634Z,16.00
2022-08-14T04:57:24.767Z,16.00
2022-08-14T04:59:51.072Z,16.10
2022-08-14T05:02:18.415Z,16.20
2022-08-14T05:04:58.704Z,16.20
2022-08-14T05:07:46.965Z,16.20
2022-08-14T05:10:16.646Z,16.30
2022-08-14T05:13:11.273Z,16.40
2022-08-14T05:15:39.518Z,16.50
2022-08-14T05:18:17.647Z,16.60
2022-08-14T05:21:57.187Z,16.70
2022-08-14T05:23:45.712Z,16.80
2022-08-14T05:26:13.215Z,16.90
2022-08-14T05:28:41.635Z,17.10
2022-08-14T05:31:07.798Z,17.20
2022-08-14T05:33:36.918Z,17.10
2022-08-14T05:36:16.751Z,17.10
2022-08-14T05:38:46.592Z,17.30
2022-08-14T05:41:15.791Z,17.50
2022-08-14T05:43:47.224Z,17.60
2022-08-14T05:46:16.797Z,18.60
2022-08-14T05:48:45.675Z,19.60
2022-08-14T05:51:15.120Z,20.00
2022-08-14T05:53:43.343Z,20.40
2022-08-14T05:56:29.654Z,20.80
2022-08-14T05:58:56.337Z,20.20
2022-08-14T06:01:22.684Z,20.40
2022-08-14T06:03:50.455Z,20.00
2022-08-14T06:06:20.650Z,20.10
2022-08-14T06:08:46.792Z,21.00
2022-08-14T06:11:20.272Z,21.60
2022-08-14T06:13:50.033Z,22.00
2022-08-14T06:16:19.583Z,21.90
2022-08-14T06:18:52.518Z,22.40
2022-08-14T06:21:20.511Z,22.60
2022-08-14T06:23:48.995Z,23.00
2022-08-14T06:26:15.433Z,22.90
2022-08-14T06:28:45.538Z,23.60
2022-08-14T06:31:15.403Z,23.90
2022-08-14T06:35:01.454Z,23.60
2022-08-14T06:36:29.046Z,23.00
2022-08-14T06:38:58.124Z,23.00
2022-08-14T06:41:56.833Z,23.20
2022-08-14T06:44:10.880Z,24.10
2022-08-14T06:46:49.400Z,23.60
2022-08-14T06:49:16.851Z,24.90
2022-08-14T06:51:44.934Z,24.40
2022-08-14T06:54:11.113Z,24.00
2022-08-14T06:56:38.956Z,24.80
2022-08-14T06:59:19.637Z,24.50
2022-08-14T07:01:48.373Z,24.60
2022-08-14T07:04:24.078Z,24.70
2022-08-14T07:06:52.030Z,25.10
2022-08-14T07:09:23.314Z,25.70
2022-08-14T07:11:49.792Z,24.90
2022-08-14T07:14:16.895Z,25.20
2022-08-14T07:16:44.826Z,24.60
2022-08-14T07:19:16.682Z,24.50
2022-08-14T07:21:51.152Z,25.60
2022-08-14T07:24:21.745Z,25.50
2022-08-14T07:26:54.995Z,25.40
2022-08-14T07:29:26.211Z,26.00
2022-08-14T07:31:53.200Z,25.90
2022-08-14T07:34:36.516Z,26.50
2022-08-14T07:37:07.818Z,26.10
2022-08-14T07:39:36.192Z,25.80
2022-08-14T07:42:05.387Z,26.90
2022-08-14T07:44:45.822Z,26.50
2022-08-14T07:47:12.946Z,26.10
2022-08-14T07:49:41.399Z,25.60
2022-08-14T07:52:09.783Z,25.60
2022-08-14T07:54:35.899Z,25.90
2022-08-14T07:57:12.698Z,25.30
2022-08-14T07:59:49.489Z,24.40
2022-08-14T08:02:22.000Z,24.40
2022-08-14T08:04:54.329Z,24.40
2022-08-14T08:07:30.498Z,24.80
2022-08-14T08:09:58.261Z,24.90
2022-08-14T08:12:30.126Z,24.90
2022-08-14T08:15:03.023Z,25.40
2022-08-14T08:17:39.120Z,25.80
2022-08-14T08:20:20.157Z,25.90
2022-08-14T08:22:55.906Z,26.10
2022-08-14T08:25:23.219Z,25.40
2022-08-14T08:27:59.184Z,25.10
2022-08-14T08:30:27.078Z,25.30
2022-08-14T08:32:58.113Z,25.10
2022-08-14T08:35:33.013Z,24.80
2022-08-14T08:39:15.728Z,25.80
2022-08-14T08:41:01.453Z,25.60
2022-08-14T08:43:31.261Z,25.90
2022-08-14T08:46:01.627Z,26.80
2022-08-14T08:48:31.940Z,26.40
2022-08-14T08:51:05.054Z,25.90
2022-08-14T08:53:33.318Z,26.20
2022-08-14T08:56:00.248Z,26.10
2022-08-14T08:58:28.848Z,26.20
2022-08-14T09:00:58.241Z,27.30
2022-08-14T09:03:27.443Z,27.10
2022-08-14T09:05:56.210Z,26.20
2022-08-14T09:08:31.706Z,26.30
2022-08-14T09:11:01.616Z,26.80
2022-08-14T09:13:30.651Z,26.80
2022-08-14T09:15:57.155Z,27.40
2022-08-14T09:18:23.522Z,27.00
2022-08-14T09:20:54.809Z,27.60
2022-08-14T09:23:34.453Z,28.20
2022-08-14T09:26:02.055Z,27.60
2022-08-14T09:28:31.307Z,27.20
2022-08-14T09:31:01.639Z,27.00
2022-08-14T09:34:09.416Z,27.70
2022-08-14T09:37:10.799Z,27.40
2022-08-14T09:39:51.097Z,27.30
2022-08-14T09:42:53.468Z,27.80
2022-08-14T09:45:30.416Z,28.30
2022-08-14T09:48:14.442Z,27.30
2022-08-14T09:50:46.271Z,27.20
2022-08-14T09:53:18.365Z,27.00
2022-08-14T09:55:58.042Z,27.80
2022-08-14T09:58:37.020Z,27.50
2022-08-14T10:01:09.054Z,27.70
2022-08-14T10:03:38.689Z,27.60
2022-08-14T10:06:11.131Z,27.60
2022-08-14T10:08:42.259Z,27.90
2022-08-14T10:11:14.540Z,28.10
2022-08-14T10:13:53.132Z,28.00
2022-08-14T10:16:27.343Z,28.50
2022-08-14T10:19:07.510Z,28.90
2022-08-14T10:21:38.970Z,29.50
2022-08-14T10:24:24.030Z,29.90
2022-08-14T10:27:12.171Z,30.40
2022-08-14T10:29:41.355Z,30.00
2022-08-14T10:32:17.956Z,29.90
2022-08-14T10:35:04.364Z,29.70
2022-08-14T10:37:37.898Z,30.20
2022-08-14T10:40:37.961Z,30.00
2022-08-14T10:43:01.120Z,30.10
2022-08-14T10:45:35.609Z,29.80
2022-08-14T10:48:34.433Z,29.40
2022-08-14T10:51:03.209Z,29.10
2022-08-14T10:53:39.337Z,29.90
2022-08-14T10:56:21.402Z,30.10
2022-08-14T10:59:01.063Z,29.70
2022-08-14T11:01:40.914Z,29.60
2022-08-14T11:04:20.496Z,29.90
2022-08-14T11:06:54.839Z,30.00
2022-08-14T11:09:22.930Z,30.00
2022-08-14T11:11:55.214Z,30.20
2022-08-14T11:14:26.443Z,29.20
2022-08-14T11:16:53.927Z,29.70
2022-08-14T11:19:21.641Z,29.90
2022-08-14T11:21:55.526Z,30.50
2022-08-14T11:24:50.680Z,30.20
2022-08-14T11:27:13.954Z,30.10
2022-08-14T11:29:42.379Z,30.40
2022-08-14T11:32:09.073Z,31.40
2022-08-14T11:34:39.495Z,30.30
2022-08-14T11:37:20.741Z,30.00
2022-08-14T11:39:53.697Z,30.10
2022-08-14T11:43:07.791Z,30.20
2022-08-14T11:45:11.122Z,31.20
2022-08-14T11:48:10.876Z,30.40
2022-08-14T11:50:37.155Z,29.80
2022-08-14T11:53:23.903Z,30.90
2022-08-14T11:56:02.076Z,30.80
2022-08-14T11:58:36.893Z,30.80
2022-08-14T12:01:06.394Z,30.00
2022-08-14T12:03:51.341Z,30.30
2022-08-14T12:06:29.619Z,30.20
2022-08-14T12:09:14.884Z,30.30
2022-08-14T12:11:46.953Z,30.30
2022-08-14T12:14:30.798Z,29.30
2022-08-14T12:17:03.682Z,29.50
2022-08-14T12:19:35.164Z,29.80
2022-08-14T12:22:02.357Z,30.00
2022-08-14T12:24:36.217Z,30.00
2022-08-14T12:27:03.974Z,29.70
2022-08-14T12:29:32.162Z,29.40
2022-08-14T12:32:03.609Z,29.20
2022-08-14T12:34:31.624Z,29.00
2022-08-14T12:37:08.012Z,29.00
2022-08-14T12:39:40.409Z,29.20
2022-08-14T12:42:11.698Z,29.30
2022-08-14T12:44:55.256Z,30.40
2022-08-14T12:47:26.283Z,31.40
2022-08-14T12:49:58.443Z,31.50
2022-08-14T13:05:38.667Z,30.20
2022-08-14T13:08:10.651Z,29.60
2022-08-14T13:10:55.363Z,30.10
2022-08-14T13:13:23.076Z,29.40
2022-08-14T13:15:55.949Z,29.00
2022-08-14T13:18:25.675Z,29.10
2022-08-14T13:20:59.627Z,29.00
2022-08-14T13:23:33.374Z,29.80
2022-08-14T13:26:06.079Z,29.80
2022-08-14T13:29:00.491Z,30.90
2022-08-14T13:31:30.033Z,31.50
2022-08-14T13:33:57.686Z,31.30
2022-08-14T13:36:54.567Z,30.70
2022-08-14T13:39:14.938Z,30.10
2022-08-14T13:41:42.295Z,31.60
2022-08-14T13:44:21.947Z,32.00
2022-08-14T13:46:53.552Z,31.70
2022-08-14T13:49:20.849Z,31.20
2022-08-14T13:51:55.831Z,30.90
2022-08-14T13:54:28.931Z,31.20
2022-08-14T13:57:03.093Z,30.80
2022-08-14T13:59:38.191Z,31.70
2022-08-14T14:02:06.595Z,31.00
2022-08-14T14:04:40.251Z,32.00
2022-08-14T14:07:08.964Z,31.00
2022-08-14T14:09:51.152Z,31.70
2022-08-14T14:12:37.744Z,31.40
2022-08-14T14:15:11.343Z,31.20
2022-08-14T14:17:38.977Z,30.20
2022-08-14T14:20:08.963Z,29.80
2022-08-14T14:23:01.495Z,30.30
2022-08-14T14:25:25.143Z,29.70
2022-08-14T14:28:37.421Z,29.90
2022-08-14T14:31:06.888Z,29.70
2022-08-14T14:33:50.733Z,29.90
2022-08-14T14:36:21.564Z,30.00
2022-08-14T14:38:53.046Z,30.30
2022-08-14T14:41:21.465Z,30.70
2022-08-14T14:43:51.464Z,30.40
2022-08-14T14:46:21.732Z,30.70
2022-08-14T14:49:05.026Z,30.50
2022-08-14T14:51:32.145Z,30.60
2022-08-14T14:53:58.231Z,30.40
2022-08-14T14:56:48.337Z,30.50
2022-08-14T14:59:13.259Z,29.80
2022-08-14T15:01:42.296Z,29.70
2022-08-14T15:04:20.563Z,30.10
2022-08-14T15:06:48.603Z,29.60
2022-08-14T15:09:18.045Z,30.60
2022-08-14T15:11:45.458Z,30.10
2022-08-14T15:14:56.947Z,31.10
2022-08-14T15:16:59.154Z,30.50
2022-08-14T15:19:27.191Z,30.30
2022-08-14T15:21:56.460Z,30.00
2022-08-14T15:24:24.371Z,29.90
2022-08-14T15:26:54.684Z,30.20
2022-08-14T15:29:20.734Z,30.40
2022-08-14T15:34:44.258Z,29.90
2022-08-14T15:37:11.009Z,29.70
2022-08-14T15:39:39.870Z,29.50
2022-08-14T15:42:16.123Z,29.20
2022-08-14T15:44:58.205Z,29.50
2022-08-14T15:47:30.871Z,29.60
2022-08-14T15:50:01.436Z,29.50
2022-08-14T15:52:33.040Z,29.30
2022-08-14T15:55:02.502Z,29.10
2022-08-14T15:57:30.215Z,28.80
2022-08-14T16:00:00.251Z,28.80
2022-08-14T16:02:28.111Z,29.20
2022-08-14T16:04:56.297Z,29.30
2022-08-14T16:07:27.173Z,29.40
2022-08-14T16:10:25.656Z,29.00
2022-08-14T16:12:47.445Z,29.00
2022-08-14T16:15:14.662Z,29.00
2022-08-14T16:17:45.269Z,29.10
2022-08-14T16:20:12.650Z,28.90
2022-08-14T16:23:01.949Z,28.80
2022-08-14T16:25:34.429Z,28.90
2022-08-14T16:28:02.390Z,28.70
2022-08-14T16:30:30.028Z,28.90
2022-08-14T16:32:58.617Z,28.70
2022-08-14T16:35:42.525Z,28.80
2022-08-14T16:38:45.878Z,28.90
2022-08-14T16:41:06.998Z,28.80
2022-08-14T16:43:33.913Z,28.60
2022-08-14T16:46:00.990Z,28.70
2022-08-14T16:48:57.612Z,28.60
2022-08-14T16:51:17.586Z,28.50
2022-08-14T16:53:47.048Z,28.30
2022-08-14T16:56:22.928Z,28.10
2022-08-14T16:59:04.972Z,28.10
2022-08-14T17:01:32.174Z,28.00
2022-08-14T17:04:02.623Z,27.90
2022-08-14T17:06:43.059Z,27.80
2022-08-14T17:09:43.363Z,27.80
2022-08-14T17:12:28.477Z,27.70
2022-08-14T17:15:02.772Z,27.70
2022-08-14T17:17:45.282Z,27.50
2022-08-14T17:20:53.832Z,27.50
2022-08-14T17:23:12.131Z,27.50
2022-08-14T17:25:49.283Z,27.40
2022-08-14T17:28:52.427Z,27.30
2022-08-14T17:31:07.290Z,27.10
2022-08-14T17:33:40.687Z,27.00
2022-08-14T17:36:20.987Z,26.90
2022-08-14T17:39:00.122Z,26.80
2022-08-14T17:41:37.525Z,26.80
2022-08-14T17:44:20.075Z,26.70
2022-08-14T17:46:57.057Z,26.60
2022-08-14T17:49:26.260Z,26.60
2022-08-14T17:51:57.889Z,26.50
2022-08-14T17:54:34.667Z,26.40
2022-08-14T17:57:12.971Z,26.30
2022-08-14T17:59:42.094Z,26.20
2022-08-14T18:02:11.373Z,26.10
2022-08-14T18:04:44.161Z,26.00
2022-08-14T18:07:49.283Z,25.90
2022-08-14T18:10:51.988Z,25.80
2022-08-14T18:12:50.876Z,25.70
2022-08-14T18:15:17.877Z,25.60
2022-08-14T18:17:52.833Z,25.50
2022-08-14T18:21:42.865Z,25.50
2022-08-14T18:23:10.561Z,25.40
2022-08-14T18:25:47.027Z,25.30
2022-08-14T18:28:48.644Z,25.20
2022-08-14T18:31:43.519Z,25.10
2022-08-14T18:34:13.635Z,25.00
2022-08-14T18:37:13.917Z,24.90
2022-08-14T18:40:01.570Z,24.80
2022-08-14T18:42:45.696Z,24.80
2022-08-14T18:45:19.002Z,24.60
2022-08-14T18:48:33.433Z,24.50
2022-08-14T18:51:24.326Z,24.40
2022-08-14T18:54:27.098Z,24.30
2022-08-14T18:56:59.256Z,24.20
2022-08-14T18:59:35.603Z,24.10
2022-08-14T19:02:42.457Z,24.00
2022-08-14T19:05:12.372Z,24.00
2022-08-14T19:07:39.359Z,23.80
2022-08-14T19:10:07.389Z,23.70
2022-08-14T19:13:00.923Z,23.70
2022-08-14T19:15:30.190Z,23.60
2022-08-14T19:18:14.445Z,23.60
2022-08-14T19:20:52.843Z,23.50
2022-08-14T19:23:22.992Z,23.30
2022-08-14T19:25:56.139Z,23.20
2022-08-14T19:28:31.250Z,23.10
2022-08-14T19:31:41.941Z,23.10
2022-08-14T19:34:32.885Z,23.00
2022-08-14T19:37:10.008Z,22.90
2022-08-14T19:39:54.109Z,22.90
2022-08-14T19:42:28.350Z,22.80
2022-08-14T19:44:58.187Z,22.70
2022-08-14T19:47:38.611Z,22.60
2022-08-14T19:50:31.004Z,22.60
2022-08-14T19:53:11.144Z,22.60
2022-08-14T19:55:45.413Z,22.50
2022-08-14T19:58:13.272Z,22.40
2022-08-14T20:00:52.481Z,22.30
2022-08-14T20:03:24.073Z,22.20
2022-08-14T20:05:58.214Z,22.20
2022-08-14T20:10:59.458Z,22.10
2022-08-14T20:11:44.642Z,22.10
2022-08-14T20:14:20.839Z,22.00
2022-08-14T20:16:51.781Z,22.00
2022-08-14T20:19:21.303Z,21.90
2022-08-14T20:22:04.163Z,21.80
2022-08-14T20:24:43.214Z,21.80
2022-08-14T20:27:33.615Z,21.70
2022-08-14T20:30:28.994Z,21.60
2022-08-14T20:32:56.830Z,21.60
2022-08-14T20:35:35.215Z,21.60
2022-08-14T20:38:30.423Z,21.60
2022-08-14T20:40:56.662Z,21.50
2022-08-14T20:43:25.787Z,21.50
2022-08-14T20:46:11.231Z,21.50
2022-08-14T20:48:53.357Z,21.50
2022-08-14T20:51:23.966Z,21.60
2022-08-14T20:53:58.982Z,21.50
2022-08-14T20:56:28.107Z,21.50
2022-08-14T20:58:57.182Z,21.50
2022-08-14T21:01:33.381Z,21.60
2022-08-14T21:04:02.468Z,21.50
2022-08-14T21:07:22.678Z,21.40
2022-08-14T21:10:05.017Z,21.40
2022-08-14T21:12:34.708Z,21.40
2022-08-14T21:14:58.606Z,21.40
2022-08-14T21:17:26.751Z,21.50
2022-08-14T21:19:53.506Z,21.60
2022-08-14T21:22:21.122Z,21.60
2022-08-14T21:24:48.014Z,21.50
2022-08-14T21:27:22.766Z,21.50
2022-08-14T21:29:55.346Z,21.40
2022-08-14T21:32:24.318Z,21.50
2022-08-14T21:34:55.063Z,21.50
2022-08-14T21:37:22.375Z,21.60
2022-08-14T21:39:58.385Z,21.50
2022-08-14T21:42:27.984Z,21.60
2022-08-14T21:44:54.974Z,21.60
2022-08-14T21:47:23.526Z,21.50
2022-08-14T21:49:51.133Z,21.50
2022-08-14T21:52:50.532Z,21.40
2022-08-14T21:55:12.402Z,21.40
2022-08-14T21:58:52.299Z,21.30
2022-08-14T22:00:34.911Z,21.30
2022-08-14T22:03:05.052Z,21.20
2022-08-14T22:05:32.671Z,21.20
2022-08-14T22:08:02.456Z,21.20
2022-08-14T22:10:30.033Z,21.20
2022-08-14T22:13:01.626Z,21.20
2022-08-14T22:15:29.982Z,21.20
2022-08-14T22:17:57.345Z,21.30
2022-08-14T22:20:25.806Z,21.30
2022-08-14T22:22:56.139Z,21.20
2022-08-14T22:25:33.810Z,21.30
2022-08-14T22:28:03.861Z,21.30
2022-08-14T22:30:31.218Z,21.30
2022-08-14T22:32:59.969Z,21.20
2022-08-14T22:35:28.587Z,21.20
2022-08-14T22:38:36.417Z,21.20
2022-08-14T22:41:09.228Z,21.20
2022-08-14T22:43:35.195Z,21.10
2022-08-14T22:46:14.359Z,21.10
2022-08-14T22:48:42.286Z,21.00
2022-08-14T22:51:10.555Z,21.10
2022-08-14T22:53:40.475Z,21.00
2022-08-14T22:56:20.422Z,21.00
2022-08-14T22:58:49.836Z,20.90
2022-08-14T23:01:56.867Z,20.90
2022-08-14T23:04:35.728Z,20.90
2022-08-14T23:07:05.010Z,20.80
2022-08-14T23:09:35.229Z,20.80
2022-08-14T23:12:28.514Z,20.80
2022-08-14T23:14:53.802Z,20.70
2022-08-14T23:17:22.258Z,20.70
2022-08-14T23:19:49.031Z,20.60
2022-08-14T23:22:26.347Z,20.50
2022-08-14T23:24:53.309Z,20.40
2022-08-14T23:27:28.386Z,20.40
2022-08-14T23:29:58.929Z,20.40
2022-08-14T23:32:27.170Z,20.30
2022-08-14T23:34:57.028Z,20.30
2022-08-14T23:37:26.972Z,20.20
2022-08-14T23:39:55.078Z,20.10
2022-08-14T23:42:22.395Z,20.10
2022-08-14T23:45:10.127Z,20.10
2022-08-14T23:47:51.673Z,20.10
2022-08-14T23:50:33.767Z,20.10
2022-08-14T23:53:07.448Z,20.10
2022-08-14T23:55:35.829Z,20.00
2022-08-14T23:58:09.014Z,20.00
